createdAt,value
2019-04-22T00:01:13.689Z,47.81
2019-04-22T00:03:50.644Z,46.99
2019-04-22T00:06:40.924Z,46.78
2019-04-22T00:09:11.158Z,45.76
2019-04-22T00:11:45.672Z,45.64
2019-04-22T00:14:07.007Z,44.88
2019-04-22T00:21:48.983Z,44.54
2019-04-22T00:24:20.057Z,47.02
2019-04-22T00:26:51.852Z,46.05
2019-04-22T00:29:38.311Z,45.23
2019-04-22T00:32:05.515Z,44.63
2019-04-22T00:34:40.800Z,44.78
2019-04-22T00:37:15.382Z,45.00
2019-04-22T00:39:40.939Z,48.00
2019-04-22T00:42:15.135Z,48.73
2019-04-22T00:44:47.094Z,46.91
2019-04-22T00:47:21.817Z,48.88
2019-04-22T00:50:12.414Z,50.41
2019-04-22T00:52:16.715Z,49.42
2019-04-22T00:54:53.253Z,49.14
2019-04-22T00:57:26.305Z,47.79
2019-04-22T00:59:52.031Z,46.56
2019-04-22T01:02:24.090Z,44.99
2019-04-22T01:04:54.891Z,44.89
2019-04-22T01:07:22.773Z,44.89
2019-04-22T01:09:58.970Z,45.63
2019-04-22T01:12:28.417Z,45.74
2019-04-22T01:14:55.357Z,48.12
2019-04-22T01:17:25.833Z,52.30
2019-04-22T01:20:13.189Z,51.72
2019-04-22T01:22:40.606Z,49.96
2019-04-22T01:24:57.607Z,46.05
2019-04-22T01:27:20.639Z,46.90
2019-04-22T01:29:49.913Z,45.90
2019-04-22T01:32:15.408Z,51.29
2019-04-22T01:34:52.634Z,52.29
2019-04-22T01:37:31.273Z,56.68
2019-04-22T01:40:09.756Z,58.50
2019-04-22T01:42:39.810Z,59.99
2019-04-22T01:45:06.287Z,58.14
2019-04-22T01:47:36.437Z,59.91
2019-04-22T01:50:16.805Z,61.44
2019-04-22T01:52:42.667Z,62.63
2019-04-22T01:55:17.706Z,62.44
2019-04-22T01:57:41.440Z,61.12
2019-04-22T02:00:05.025Z,55.90
2019-04-22T02:02:41.746Z,57.60
2019-04-22T02:07:42.342Z,52.26
2019-04-22T02:10:21.320Z,57.74
2019-04-22T02:12:48.502Z,58.01
2019-04-22T02:15:17.164Z,58.07
2019-04-22T02:17:54.787Z,49.56
2019-04-22T02:20:23.447Z,46.26
2019-04-22T02:25:57.909Z,55.50
2019-04-22T02:28:32.233Z,58.11
2019-04-22T02:36:19.143Z,56.33
2019-04-22T02:46:28.538Z,57.90
2019-04-22T02:51:12.389Z,55.41
2019-04-22T03:01:13.431Z,57.93
2019-04-22T03:08:48.673Z,57.46
2019-04-22T03:19:09.435Z,59.23
2019-04-22T03:23:57.860Z,55.10
2019-04-22T03:28:51.197Z,55.41
2019-04-22T03:34:39.056Z,52.27
2019-04-22T03:39:20.166Z,49.94
2019-04-22T03:41:57.329Z,50.88
2019-04-22T03:44:26.687Z,43.96
2019-04-22T03:46:41.833Z,40.12
2019-04-22T03:49:30.800Z,43.71
2019-04-22T03:51:55.005Z,52.11
2019-04-22T03:54:11.165Z,55.76
2019-04-22T03:57:10.474Z,57.91
2019-04-22T03:59:26.928Z,51.87
2019-04-22T04:01:56.157Z,40.77
2019-04-22T04:06:54.688Z,44.75
2019-04-22T04:09:19.439Z,47.13
2019-04-22T04:11:52.537Z,46.03
2019-04-22T04:14:22.937Z,45.36
2019-04-22T04:16:47.703Z,43.29
2019-04-22T04:21:44.157Z,42.97
2019-04-22T04:24:32.337Z,42.97
2019-04-22T04:26:55.562Z,39.04
2019-04-22T04:29:35.620Z,40.49
2019-04-22T04:31:53.338Z,44.89
2019-04-22T04:34:28.547Z,50.14
2019-04-22T04:37:02.910Z,50.23
2019-04-22T04:39:26.801Z,48.08
2019-04-22T04:41:52.173Z,48.25
2019-04-22T04:49:43.575Z,47.07
2019-04-22T04:54:48.744Z,46.65
2019-04-22T04:57:05.033Z,45.79
2019-04-22T05:01:55.553Z,47.69
2019-04-22T05:09:26.168Z,45.33
2019-04-22T05:12:03.481Z,46.87
2019-04-22T05:14:24.580Z,47.38
2019-04-22T05:16:59.654Z,48.31
2019-04-22T05:19:26.355Z,47.01
2019-04-22T05:21:58.132Z,46.19
2019-04-22T05:26:57.466Z,46.10
2019-04-22T05:29:26.672Z,48.17
2019-04-22T05:31:59.715Z,48.06
2019-04-22T05:34:42.872Z,47.63
2019-04-22T05:37:01.210Z,47.06
2019-04-22T05:39:24.602Z,46.96
2019-04-22T05:42:07.542Z,47.43
2019-04-22T05:44:30.245Z,49.49
2019-04-22T05:46:52.721Z,48.12
2019-04-22T05:49:28.929Z,49.06
2019-04-22T05:51:55.470Z,49.08
2019-04-22T05:54:35.160Z,49.08
2019-04-22T05:57:02.073Z,52.58
2019-04-22T05:59:32.249Z,51.99
2019-04-22T06:02:05.111Z,51.12
2019-04-22T06:04:29.691Z,51.31
2019-04-22T06:07:04.983Z,50.07
2019-04-22T06:09:37.243Z,51.42
2019-04-22T06:11:59.017Z,51.73
2019-04-22T06:14:37.079Z,50.69
2019-04-22T06:17:20.493Z,50.06
2019-04-22T06:19:49.132Z,47.87
2019-04-22T06:22:25.290Z,47.37
2019-04-22T06:24:49.431Z,46.94
2019-04-22T06:27:26.888Z,46.90
2019-04-22T06:29:41.414Z,47.04
2019-04-22T06:34:48.728Z,47.48
2019-04-22T06:37:18.692Z,47.95
2019-04-22T06:39:45.189Z,47.83
2019-04-22T06:42:21.831Z,45.92
2019-04-22T06:44:53.908Z,45.65
2019-04-22T06:47:27.322Z,48.25
2019-04-22T06:49:48.274Z,47.51
2019-04-22T06:54:54.270Z,46.72
2019-04-22T06:57:24.255Z,47.08
2019-04-22T06:59:52.096Z,47.35
2019-04-22T07:02:32.066Z,47.30
2019-04-22T07:04:59.586Z,46.12
2019-04-22T07:07:25.259Z,44.95
2019-04-22T07:09:54.383Z,44.35
2019-04-22T07:14:59.990Z,44.98
2019-04-22T07:17:27.548Z,44.55
2019-04-22T07:19:57.549Z,43.20
2019-04-22T07:22:28.156Z,42.88
2019-04-22T07:24:59.061Z,41.92
2019-04-22T07:27:27.575Z,43.29
2019-04-22T07:32:53.768Z,42.89
2019-04-22T07:35:08.474Z,43.59
2019-04-22T07:40:09.806Z,38.67
2019-04-22T07:42:36.882Z,36.77
2019-04-22T07:45:09.943Z,36.58
2019-04-22T07:47:38.311Z,37.54
2019-04-22T07:50:17.018Z,37.09
2019-04-22T07:52:43.010Z,35.71
2019-04-22T07:55:05.563Z,34.62
2019-04-22T07:57:39.256Z,34.77
2019-04-22T08:00:16.041Z,34.28
2019-04-22T08:02:53.930Z,34.14
2019-04-22T08:05:16.420Z,34.69
2019-04-22T08:07:43.489Z,33.76
2019-04-22T08:10:24.441Z,31.45
2019-04-22T08:12:51.832Z,33.18
2019-04-22T08:15:20.093Z,31.88
2019-04-22T08:18:00.276Z,31.69
2019-04-22T08:20:25.179Z,31.30
2019-04-22T08:22:51.080Z,33.05
2019-04-22T08:25:19.567Z,31.02
2019-04-22T08:27:50.734Z,31.59
2019-04-22T08:30:28.363Z,32.59
2019-04-22T08:32:53.226Z,31.01
2019-04-22T08:35:35.655Z,31.40
2019-04-22T08:38:06.902Z,31.80
2019-04-22T08:40:32.854Z,30.95
2019-04-22T08:43:07.215Z,31.80
2019-04-22T08:45:31.874Z,30.75
2019-04-22T08:47:54.857Z,30.52
2019-04-22T08:50:26.901Z,31.61
2019-04-22T08:53:02.040Z,31.63
2019-04-22T08:55:33.581Z,32.13
2019-04-22T08:58:18.619Z,33.89
2019-04-22T09:00:37.301Z,33.66
2019-04-22T09:03:04.805Z,34.20
2019-04-22T09:18:14.754Z,33.71
2019-04-22T09:20:40.643Z,36.00
2019-04-22T09:23:16.094Z,33.88
2019-04-22T09:25:44.090Z,33.18
2019-04-22T09:28:20.436Z,32.31
2019-04-22T09:30:52.343Z,32.12
2019-04-22T09:35:51.700Z,29.61
2019-04-22T09:40:50.364Z,30.02
2019-04-22T09:43:25.872Z,29.16
2019-04-22T09:45:47.954Z,29.46
2019-04-22T09:48:23.421Z,31.17
2019-04-22T09:50:48.067Z,30.69
2019-04-22T09:53:22.722Z,29.44
2019-04-22T09:55:57.163Z,29.67
2019-04-22T09:58:26.596Z,31.37
2019-04-22T10:01:19.046Z,32.05
2019-04-22T10:03:44.517Z,33.33
2019-04-22T10:06:23.108Z,36.25
2019-04-22T10:08:52.938Z,32.19
2019-04-22T10:11:23.986Z,33.51
2019-04-22T10:13:49.336Z,32.19
2019-04-22T10:16:17.339Z,31.86
2019-04-22T10:18:46.341Z,32.38
2019-04-22T10:21:20.554Z,32.28
2019-04-22T10:23:54.682Z,32.14
2019-04-22T10:26:22.062Z,30.98
2019-04-22T10:28:53.111Z,32.39
2019-04-22T10:31:28.017Z,31.69
2019-04-22T10:33:46.515Z,35.23
2019-04-22T10:35:59.246Z,34.46
2019-04-22T10:38:28.405Z,36.03
2019-04-22T10:40:58.665Z,36.05
2019-04-22T10:43:27.749Z,33.75
2019-04-22T10:45:57.852Z,33.16
2019-04-22T10:48:28.221Z,33.61
2019-04-22T10:50:57.292Z,38.43
2019-04-22T10:53:27.410Z,34.55
2019-04-22T10:55:56.464Z,36.62
2019-04-22T10:58:26.676Z,34.63
2019-04-22T11:00:56.236Z,34.64
2019-04-22T11:03:26.587Z,32.46
2019-04-22T11:05:57.068Z,33.19
2019-04-22T11:08:37.910Z,33.27
2019-04-22T11:11:12.410Z,32.80
2019-04-22T11:13:28.265Z,32.59
2019-04-22T11:15:58.385Z,32.87
2019-04-22T11:18:27.485Z,31.31
2019-04-22T11:20:57.809Z,33.08
2019-04-22T11:23:27.121Z,30.99
2019-04-22T11:25:57.526Z,32.41
2019-04-22T11:28:27.759Z,31.36
2019-04-22T11:30:56.876Z,36.03
2019-04-22T11:33:26.743Z,33.31
2019-04-22T11:35:55.861Z,32.68
2019-04-22T11:38:24.782Z,33.20
2019-04-22T11:40:55.844Z,34.33
2019-04-22T11:43:24.380Z,32.08
2019-04-22T11:45:53.505Z,31.85
2019-04-22T11:48:23.623Z,31.45
2019-04-22T11:50:53.728Z,34.07
2019-04-22T11:53:22.810Z,31.95
2019-04-22T11:55:52.970Z,33.16
2019-04-22T11:58:22.280Z,31.48
2019-04-22T12:00:51.993Z,31.35
2019-04-22T12:03:22.925Z,32.80
2019-04-22T12:05:52.271Z,32.21
2019-04-22T12:08:21.073Z,32.72
2019-04-22T12:10:54.816Z,32.84
2019-04-22T12:13:21.852Z,30.72
2019-04-22T12:15:51.202Z,31.58
2019-04-22T12:18:21.202Z,30.19
2019-04-22T12:20:51.021Z,31.07
2019-04-22T12:23:21.117Z,30.35
2019-04-22T12:25:58.221Z,31.28
2019-04-22T12:28:21.363Z,30.70
2019-04-22T12:30:51.241Z,29.68
2019-04-22T12:33:21.246Z,30.97
2019-04-22T12:35:50.547Z,30.62
2019-04-22T12:38:20.233Z,29.28
2019-04-22T12:40:56.479Z,30.10
2019-04-22T12:43:22.281Z,28.69
2019-04-22T12:45:52.103Z,28.32
2019-04-22T12:48:21.432Z,28.56
2019-04-22T12:50:52.714Z,28.56
2019-04-22T12:53:25.318Z,29.66
2019-04-22T12:55:54.892Z,28.75
2019-04-22T12:58:23.425Z,28.00
2019-04-22T13:00:52.917Z,28.92
2019-04-22T13:03:24.347Z,28.44
2019-04-22T13:05:53.921Z,29.46
2019-04-22T13:08:25.464Z,31.03
2019-04-22T13:11:00.918Z,31.01
2019-04-22T13:13:25.197Z,29.02
2019-04-22T13:15:55.081Z,27.14
2019-04-22T13:18:36.681Z,30.55
2019-04-22T13:20:56.653Z,30.69
2019-04-22T13:23:25.770Z,28.50
2019-04-22T13:25:54.937Z,29.20
2019-04-22T13:28:25.216Z,28.63
2019-04-22T13:30:56.894Z,29.44
2019-04-22T13:33:25.768Z,28.21
2019-04-22T13:35:54.658Z,28.83
2019-04-22T13:38:24.986Z,26.58
2019-04-22T13:41:09.829Z,28.55
2019-04-22T13:43:25.001Z,27.78
2019-04-22T13:45:54.135Z,27.69
2019-04-22T13:48:38.836Z,28.44
2019-04-22T13:51:30.148Z,27.63
2019-04-22T13:54:19.024Z,26.38
2019-04-22T13:56:13.666Z,27.39
2019-04-22T13:58:42.730Z,29.08
2019-04-22T14:01:00.608Z,26.30
2019-04-22T14:03:36.109Z,27.19
2019-04-22T14:06:06.920Z,26.91
2019-04-22T14:08:37.464Z,27.73
2019-04-22T14:11:16.986Z,28.50
2019-04-22T14:13:37.752Z,27.24
2019-04-22T14:16:09.119Z,27.07
2019-04-22T14:18:39.050Z,27.91
2019-04-22T14:21:09.160Z,27.40
2019-04-22T14:23:38.434Z,24.91
2019-04-22T14:26:09.145Z,26.30
2019-04-22T14:28:39.777Z,27.06
2019-04-22T14:31:10.651Z,27.05
2019-04-22T14:33:42.908Z,27.74
2019-04-22T14:36:11.684Z,26.36
2019-04-22T14:38:41.817Z,26.98
2019-04-22T14:41:30.522Z,27.65
2019-04-22T14:44:45.202Z,28.38
2019-04-22T14:46:39.199Z,27.61
2019-04-22T14:49:02.708Z,28.04
2019-04-22T14:51:35.755Z,29.36
2019-04-22T14:54:01.437Z,29.57
2019-04-22T14:56:16.104Z,27.44
2019-04-22T14:58:45.007Z,28.34
2019-04-22T15:01:14.827Z,31.74
2019-04-22T15:03:48.194Z,29.62
2019-04-22T15:06:15.980Z,29.96
2019-04-22T15:08:45.120Z,29.89
2019-04-22T15:11:14.984Z,29.06
2019-04-22T15:13:45.237Z,28.79
2019-04-22T15:16:34.178Z,29.53
2019-04-22T15:19:04.603Z,30.91
2019-04-22T15:21:34.504Z,31.20
2019-04-22T15:24:22.792Z,30.23
2019-04-22T15:26:52.808Z,30.38
2019-04-22T15:29:23.159Z,31.93
2019-04-22T15:31:53.475Z,30.50
2019-04-22T15:34:22.680Z,29.95
2019-04-22T15:36:51.831Z,30.56
2019-04-22T15:39:23.118Z,30.43
2019-04-22T15:42:00.395Z,30.60
2019-04-22T15:44:24.052Z,30.98
2019-04-22T15:46:53.384Z,30.22
2019-04-22T15:49:22.462Z,30.18
2019-04-22T15:51:54.077Z,31.25
2019-04-22T15:54:23.500Z,30.62
2019-04-22T15:56:52.761Z,29.34
2019-04-22T15:59:41.576Z,28.08
2019-04-22T16:01:53.165Z,28.93
2019-04-22T16:04:23.053Z,30.25
2019-04-22T16:06:52.732Z,30.05
2019-04-22T16:09:22.779Z,30.35
2019-04-22T16:11:51.949Z,30.16
2019-04-22T16:14:27.440Z,28.59
2019-04-22T16:16:52.494Z,28.94
2019-04-22T16:19:22.943Z,29.27
2019-04-22T16:21:59.324Z,30.13
2019-04-22T16:24:27.883Z,30.04
2019-04-22T16:27:02.449Z,29.71
2019-04-22T16:29:31.654Z,28.90
2019-04-22T16:32:01.270Z,28.50
2019-04-22T16:34:31.304Z,29.53
2019-04-22T16:37:00.827Z,29.29
2019-04-22T16:39:31.108Z,30.06
2019-04-22T16:42:00.617Z,30.55
2019-04-22T16:44:30.365Z,29.40
2019-04-22T16:46:59.665Z,30.07
2019-04-22T16:49:29.818Z,29.81
2019-04-22T16:52:00.225Z,32.95
2019-04-22T16:54:30.626Z,32.91
2019-04-22T16:56:59.865Z,30.73
2019-04-22T16:59:28.789Z,31.76
2019-04-22T17:02:02.362Z,30.16
2019-04-22T17:04:46.757Z,29.89
2019-04-22T17:07:16.214Z,29.99
2019-04-22T17:09:45.850Z,29.92
2019-04-22T17:12:16.054Z,30.30
2019-04-22T17:14:52.696Z,30.77
2019-04-22T17:17:15.676Z,30.77
2019-04-22T17:19:46.989Z,31.67
2019-04-22T17:22:19.739Z,32.96
2019-04-22T17:24:49.929Z,32.62
2019-04-22T17:27:20.175Z,34.56
2019-04-22T17:29:50.453Z,34.41
2019-04-22T17:32:22.932Z,35.59
2019-04-22T17:34:51.909Z,35.60
2019-04-22T17:37:26.324Z,34.71
2019-04-22T17:40:10.180Z,29.77
2019-04-22T17:42:42.251Z,29.42
2019-04-22T17:45:22.032Z,28.99
2019-04-22T17:48:09.819Z,28.58
2019-04-22T17:50:44.375Z,29.63
2019-04-22T17:53:17.109Z,28.71
2019-04-22T17:55:49.484Z,28.50
2019-04-22T17:58:17.589Z,28.51
2019-04-22T18:00:39.867Z,28.14
2019-04-22T18:03:03.174Z,28.02
2019-04-22T18:05:34.758Z,28.51
2019-04-22T18:08:15.436Z,28.06
2019-04-22T18:10:44.058Z,27.76
2019-04-22T18:13:28.225Z,28.00
2019-04-22T18:15:48.745Z,28.20
2019-04-22T18:18:21.533Z,28.23
2019-04-22T18:20:44.290Z,28.47
2019-04-22T18:23:07.919Z,28.39
2019-04-22T18:25:52.223Z,28.56
2019-04-22T18:28:23.817Z,28.64
2019-04-22T18:30:47.775Z,28.48
2019-04-22T18:33:24.206Z,28.71
2019-04-22T18:35:48.844Z,28.70
2019-04-22T18:38:33.289Z,28.58
2019-04-22T18:40:53.705Z,28.48
2019-04-22T18:43:31.350Z,28.54
2019-04-22T18:46:05.459Z,28.98
2019-04-22T18:48:29.740Z,28.55
2019-04-22T18:51:18.857Z,28.40
2019-04-22T18:54:02.188Z,28.32
2019-04-22T18:56:31.479Z,28.78
2019-04-22T18:58:51.375Z,28.75
2019-04-22T19:01:12.075Z,28.62
2019-04-22T19:03:54.255Z,28.59
2019-04-22T19:06:42.208Z,28.40
2019-04-22T19:09:10.556Z,28.39
2019-04-22T19:11:46.662Z,29.11
2019-04-22T19:14:05.948Z,29.91
2019-04-22T19:16:53.331Z,29.76
2019-04-22T19:19:25.574Z,29.45
2019-04-22T19:21:38.096Z,31.10
2019-04-22T19:24:05.998Z,31.86
2019-04-22T19:26:50.051Z,32.07
2019-04-22T19:29:05.616Z,30.60
2019-04-22T19:31:43.943Z,31.85
2019-04-22T19:34:09.400Z,31.54
2019-04-22T19:36:48.505Z,30.51
2019-04-22T19:39:10.349Z,29.64
2019-04-22T19:41:44.379Z,29.53
2019-04-22T19:44:13.862Z,29.28
2019-04-22T19:46:53.238Z,31.53
2019-04-22T19:49:23.834Z,31.86
2019-04-22T19:51:52.456Z,34.06
2019-04-22T19:54:15.804Z,35.45
2019-04-22T19:56:38.868Z,34.93
2019-04-22T19:59:12.321Z,34.45
2019-04-22T20:01:49.814Z,33.91
2019-04-22T20:04:41.748Z,31.80
2019-04-22T20:06:59.045Z,31.01
2019-04-22T20:09:38.049Z,30.81
2019-04-22T20:12:01.016Z,31.58
2019-04-22T20:14:36.920Z,31.07
2019-04-22T20:17:00.628Z,31.96
2019-04-22T20:22:09.665Z,30.92
2019-04-22T20:24:23.859Z,29.82
2019-04-22T20:27:10.580Z,30.61
2019-04-22T20:29:41.523Z,30.43
2019-04-22T20:32:13.725Z,30.58
2019-04-22T20:34:47.562Z,30.36
2019-04-22T20:37:17.712Z,30.82
2019-04-22T20:39:44.138Z,30.22
2019-04-22T20:42:23.496Z,30.59
2019-04-22T20:44:45.707Z,30.44
2019-04-22T20:47:09.304Z,30.01
2019-04-22T20:49:44.398Z,29.77
2019-04-22T20:52:22.328Z,30.00
2019-04-22T20:54:45.354Z,29.80
2019-04-22T20:57:10.804Z,30.36
2019-04-22T20:59:47.451Z,29.81
2019-04-22T21:02:12.268Z,29.25
2019-04-22T21:04:39.324Z,29.27
2019-04-22T21:07:13.766Z,29.69
2019-04-22T21:09:52.339Z,29.12
2019-04-22T21:12:13.795Z,28.74
2019-04-22T21:14:55.180Z,27.84
2019-04-22T21:17:28.689Z,28.24
2019-04-22T21:20:00.118Z,28.08
2019-04-22T21:22:25.996Z,27.93
2019-04-22T21:24:52.205Z,27.64
2019-04-22T21:27:32.227Z,27.54
2019-04-22T21:29:49.245Z,27.51
2019-04-22T21:32:32.470Z,27.83
2019-04-22T21:35:06.612Z,27.65
2019-04-22T21:37:36.038Z,27.58
2019-04-22T21:39:52.552Z,27.41
2019-04-22T21:42:38.794Z,27.57
2019-04-22T21:45:00.350Z,27.70
2019-04-22T21:47:48.802Z,27.56
2019-04-22T21:50:23.345Z,27.33
2019-04-22T21:52:33.514Z,27.58
2019-04-22T21:55:10.283Z,27.66
2019-04-22T21:57:57.261Z,27.37
2019-04-22T22:00:31.652Z,27.37
2019-04-22T22:02:55.893Z,27.90
2019-04-22T22:05:15.532Z,29.03
2019-04-22T22:07:34.555Z,29.05
2019-04-22T22:10:22.978Z,28.31
2019-04-22T22:12:54.947Z,28.82
2019-04-22T22:15:24.870Z,28.47
2019-04-22T22:17:58.717Z,28.40
2019-04-22T22:20:25.675Z,28.30
2019-04-22T22:23:09.089Z,28.31
2019-04-22T22:25:28.794Z,28.65
2019-04-22T22:28:01.749Z,28.79
2019-04-22T22:33:08.097Z,28.42
2019-04-22T22:35:39.259Z,28.80
2019-04-22T22:38:03.014Z,28.84
2019-04-22T22:40:21.944Z,28.81
2019-04-22T22:42:51.842Z,29.39
2019-04-22T22:45:32.036Z,29.37
2019-04-22T22:48:14.829Z,29.75
2019-04-22T22:50:45.551Z,30.28
2019-04-22T22:53:22.373Z,30.64
2019-04-22T22:55:46.278Z,30.59
2019-04-22T22:58:17.660Z,31.04
2019-04-22T23:00:39.682Z,30.84
2019-04-22T23:05:50.502Z,30.14
2019-04-22T23:08:21.032Z,29.53
2019-04-22T23:10:56.003Z,29.51
2019-04-22T23:13:24.853Z,29.97
2019-04-22T23:15:46.593Z,29.72
2019-04-22T23:17:58.254Z,29.78
2019-04-22T23:20:33.734Z,29.60
2019-04-22T23:23:33.012Z,29.39
2019-04-22T23:25:55.058Z,29.54
2019-04-22T23:28:16.135Z,29.79
2019-04-22T23:30:57.114Z,30.33
2019-04-22T23:33:49.535Z,30.21
2019-04-22T23:36:13.768Z,29.20
2019-04-22T23:38:59.321Z,28.95
2019-04-22T23:42:02.421Z,29.75
2019-04-22T23:46:37.927Z,29.36
2019-04-22T23:49:10.146Z,29.89
2019-04-22T23:51:53.285Z,29.37
2019-04-22T23:54:15.633Z,29.78
2019-04-22T23:56:39.327Z,29.90
2019-04-22T23:59:38.289Z,30.85
